createdAt,value
2022-08-05T00:01:35.471Z,48.68
2022-08-05T00:04:02.424Z,48.89
2022-08-05T00:06:33.245Z,48.91
2022-08-05T00:09:03.125Z,48.95
2022-08-05T00:11:34.484Z,48.66
2022-08-05T00:14:12.762Z,49.06
2022-08-05T00:16:52.856Z,49.04
2022-08-05T00:19:22.247Z,49.13
2022-08-05T00:21:49.400Z,49.00
2022-08-05T00:24:19.050Z,49.05
2022-08-05T00:26:52.083Z,49.09
2022-08-05T00:29:22.541Z,49.19
2022-08-05T00:32:10.530Z,49.09
2022-08-05T00:35:04.036Z,48.99
2022-08-05T00:37:50.737Z,49.09
2022-08-05T00:40:17.921Z,49.45
2022-08-05T00:42:59.208Z,49.51
2022-08-05T00:45:38.294Z,49.24
2022-08-05T00:48:11.338Z,49.28
2022-08-05T00:50:41.220Z,49.46
2022-08-05T00:53:09.914Z,49.35
2022-08-05T00:55:55.791Z,49.47
2022-08-05T00:58:22.377Z,49.50
2022-08-05T01:00:55.666Z,49.31
2022-08-05T01:03:23.415Z,49.37
2022-08-05T01:05:54.481Z,49.38
2022-08-05T01:08:40.219Z,49.65
2022-08-05T01:11:13.613Z,49.95
2022-08-05T01:14:00.107Z,49.63
2022-08-05T01:16:38.728Z,49.48
2022-08-05T01:19:56.933Z,50.01
2022-08-05T01:22:37.504Z,49.90
2022-08-05T01:25:13.504Z,49.94
2022-08-05T01:27:50.554Z,50.13
2022-08-05T01:30:33.706Z,49.97
2022-08-05T01:33:06.081Z,50.11
2022-08-05T01:35:51.216Z,50.17
2022-08-05T01:38:27.582Z,50.02
2022-08-05T01:40:59.768Z,50.03
2022-08-05T01:43:29.244Z,50.11
2022-08-05T01:45:57.766Z,49.97
2022-08-05T01:48:27.238Z,49.95
2022-08-05T01:50:56.858Z,50.21
2022-08-05T01:53:54.588Z,50.06
2022-08-05T01:58:12.461Z,50.11
2022-08-05T01:59:08.037Z,50.23
2022-08-05T02:01:39.764Z,50.04
2022-08-05T02:04:09.316Z,50.20
2022-08-05T02:06:38.989Z,50.38
2022-08-05T02:09:07.425Z,50.28
2022-08-05T02:12:07.079Z,50.38
2022-08-05T02:15:03.067Z,50.34
2022-08-05T02:18:31.053Z,50.19
2022-08-05T02:20:22.327Z,50.44
2022-08-05T02:23:01.191Z,50.63
2022-08-05T02:25:33.350Z,50.54
2022-08-05T02:28:02.398Z,50.57
2022-08-05T02:30:51.723Z,50.30
2022-08-05T02:33:24.543Z,50.54
2022-08-05T02:36:09.482Z,50.66
2022-08-05T02:38:37.826Z,50.67
2022-08-05T02:41:14.696Z,50.79
2022-08-05T02:44:02.414Z,50.72
2022-08-05T02:46:53.755Z,50.67
2022-08-05T02:49:25.685Z,50.81
2022-08-05T02:52:03.670Z,50.76
2022-08-05T02:54:36.482Z,50.92
2022-08-05T02:57:10.178Z,51.01
2022-08-05T02:59:55.044Z,50.79
2022-08-05T03:02:29.042Z,50.72
2022-08-05T03:04:58.041Z,50.96
2022-08-05T03:07:40.620Z,50.75
2022-08-05T03:10:15.944Z,50.80
2022-08-05T03:12:51.715Z,50.94
2022-08-05T03:15:20.097Z,50.95
2022-08-05T03:17:46.658Z,50.99
2022-08-05T03:20:13.726Z,50.95
2022-08-05T03:22:43.906Z,50.98
2022-08-05T03:25:33.078Z,51.08
2022-08-05T03:28:02.313Z,51.12
2022-08-05T03:30:34.227Z,50.93
2022-08-05T03:33:03.249Z,51.00
2022-08-05T03:35:33.695Z,50.97
2022-08-05T03:38:01.364Z,51.16
2022-08-05T03:40:31.834Z,51.16
2022-08-05T03:43:15.745Z,51.15
2022-08-05T03:45:57.329Z,51.20
2022-08-05T03:48:26.983Z,51.16
2022-08-05T03:52:35.165Z,51.28
2022-08-05T03:55:53.869Z,51.09
2022-08-05T03:56:50.251Z,51.29
2022-08-05T03:59:47.032Z,51.25
2022-08-05T04:02:17.486Z,51.21
2022-08-05T04:05:05.698Z,51.30
2022-08-05T04:07:57.615Z,51.26
2022-08-05T04:10:27.700Z,51.25
2022-08-05T04:12:56.150Z,51.35
2022-08-05T04:15:27.826Z,51.41
2022-08-05T04:18:03.838Z,51.43
2022-08-05T04:20:33.665Z,51.46
2022-08-05T04:23:00.254Z,51.30
2022-08-05T04:25:56.472Z,51.55
2022-08-05T04:28:15.017Z,51.58
2022-08-05T04:30:43.754Z,51.55
2022-08-05T04:33:10.878Z,51.53
2022-08-05T04:36:16.740Z,51.57
2022-08-05T04:38:39.226Z,51.72
2022-08-05T04:41:07.336Z,51.48
2022-08-05T04:43:36.209Z,51.78
2022-08-05T04:46:05.100Z,51.68
2022-08-05T04:48:32.267Z,51.54
2022-08-05T04:51:02.379Z,51.61
2022-08-05T04:53:33.594Z,51.76
2022-08-05T04:56:33.068Z,51.62
2022-08-05T04:58:49.048Z,51.63
2022-08-05T05:01:15.760Z,51.74
2022-08-05T05:04:02.400Z,51.76
2022-08-05T05:06:40.556Z,51.94
2022-08-05T05:09:17.508Z,51.80
2022-08-05T05:11:54.622Z,51.81
2022-08-05T05:14:31.757Z,51.97
2022-08-05T05:17:03.276Z,51.69
2022-08-05T05:19:37.126Z,51.82
2022-08-05T05:22:24.618Z,51.87
2022-08-05T05:24:57.471Z,51.90
2022-08-05T05:27:45.041Z,51.92
2022-08-05T05:30:15.444Z,51.85
2022-08-05T05:32:56.896Z,51.98
2022-08-05T05:35:28.088Z,51.85
2022-08-05T05:38:01.404Z,52.04
2022-08-05T05:40:32.041Z,52.07
2022-08-05T05:42:59.600Z,52.05
2022-08-05T05:45:26.357Z,52.20
2022-08-05T05:48:06.626Z,52.30
2022-08-05T05:50:44.095Z,52.34
2022-08-05T05:53:21.104Z,52.30
2022-08-05T05:55:51.710Z,52.24
2022-08-05T05:58:31.639Z,52.13
2022-08-05T06:01:02.603Z,52.02
2022-08-05T06:04:00.584Z,52.17
2022-08-05T06:06:31.229Z,52.06
2022-08-05T06:09:00.157Z,52.50
2022-08-05T06:11:28.832Z,52.13
2022-08-05T06:13:55.581Z,52.04
2022-08-05T06:16:28.660Z,52.16
2022-08-05T06:19:01.862Z,52.42
2022-08-05T06:21:37.210Z,52.12
2022-08-05T06:24:12.180Z,52.09
2022-08-05T06:26:45.902Z,52.17
2022-08-05T06:29:43.216Z,52.11
2022-08-05T06:32:24.958Z,52.33
2022-08-05T06:34:57.915Z,52.51
2022-08-05T06:37:55.873Z,52.65
2022-08-05T06:40:13.736Z,52.45
2022-08-05T06:42:40.663Z,52.18
2022-08-05T06:45:09.304Z,52.37
2022-08-05T06:48:37.317Z,52.37
2022-08-05T06:50:24.973Z,52.72
2022-08-05T06:52:58.474Z,52.35
2022-08-05T06:55:25.788Z,52.57
2022-08-05T06:58:03.960Z,52.67
2022-08-05T07:00:41.183Z,52.60
2022-08-05T07:03:09.790Z,52.53
2022-08-05T07:05:37.876Z,52.69
2022-08-05T07:08:11.158Z,52.54
2022-08-05T07:10:38.575Z,52.23
2022-08-05T07:13:37.223Z,52.55
2022-08-05T07:18:00.755Z,52.36
2022-08-05T07:19:38.926Z,52.35
2022-08-05T07:22:04.580Z,52.18
2022-08-05T07:24:31.669Z,52.36
2022-08-05T07:26:58.340Z,52.48
2022-08-05T07:30:30.049Z,52.35
2022-08-05T07:32:12.999Z,52.58
2022-08-05T07:34:42.383Z,52.67
2022-08-05T07:37:11.656Z,52.70
2022-08-05T07:40:26.012Z,52.19
2022-08-05T07:42:33.502Z,52.71
2022-08-05T07:45:01.197Z,52.71
2022-08-05T07:47:39.664Z,52.69
2022-08-05T07:50:09.789Z,52.46
2022-08-05T07:52:43.612Z,52.82
2022-08-05T07:55:15.771Z,52.72
2022-08-05T07:58:03.179Z,52.57
2022-08-05T08:00:30.671Z,52.55
2022-08-05T08:03:15.109Z,53.01
2022-08-05T08:05:49.444Z,52.85
2022-08-05T08:08:19.993Z,52.91
2022-08-05T08:10:48.805Z,52.91
2022-08-05T08:13:15.968Z,52.49
2022-08-05T08:16:34.425Z,52.84
2022-08-05T08:18:42.443Z,52.52
2022-08-05T08:21:17.524Z,52.80
2022-08-05T08:24:01.353Z,52.55
2022-08-05T08:26:31.192Z,52.63
2022-08-05T08:29:21.870Z,52.61
2022-08-05T08:31:46.660Z,52.65
2022-08-05T08:34:15.462Z,52.90
2022-08-05T08:36:47.563Z,52.53
2022-08-05T08:39:19.783Z,52.55
2022-08-05T08:41:52.144Z,52.92
2022-08-05T08:45:19.091Z,52.57
2022-08-05T08:48:06.433Z,52.51
2022-08-05T08:50:30.501Z,52.57
2022-08-05T08:53:12.184Z,52.50
2022-08-05T08:56:02.882Z,52.73
2022-08-05T08:58:37.055Z,52.89
2022-08-05T09:01:15.762Z,52.93
2022-08-05T09:03:46.331Z,53.03
2022-08-05T09:06:17.208Z,52.51
2022-08-05T09:08:46.826Z,52.67
2022-08-05T09:11:14.920Z,52.76
2022-08-05T09:14:00.824Z,52.99
2022-08-05T09:16:29.773Z,53.03
2022-08-05T09:18:56.443Z,52.80
2022-08-05T09:22:23.519Z,52.81
2022-08-05T09:24:15.669Z,52.83
2022-08-05T09:26:46.346Z,52.79
2022-08-05T09:29:18.899Z,52.82
2022-08-05T09:32:41.756Z,53.07
2022-08-05T09:34:56.210Z,52.85
2022-08-05T09:38:16.564Z,52.89
2022-08-05T09:40:32.825Z,53.18
2022-08-05T09:43:00.391Z,53.00
2022-08-05T09:46:06.857Z,53.35
2022-08-05T09:48:34.502Z,53.36
2022-08-05T09:51:02.126Z,53.10
2022-08-05T09:53:53.510Z,53.37
2022-08-05T09:56:28.605Z,53.38
2022-08-05T09:59:06.604Z,53.38
2022-08-05T10:01:36.399Z,53.03
2022-08-05T10:04:14.119Z,53.44
2022-08-05T10:06:59.131Z,53.00
2022-08-05T10:09:28.146Z,53.46
2022-08-05T10:12:18.933Z,53.20
2022-08-05T10:15:17.125Z,53.10
2022-08-05T10:18:07.866Z,53.16
2022-08-05T10:20:41.737Z,53.21
2022-08-05T10:23:34.339Z,53.46
2022-08-05T10:26:00.888Z,53.04
2022-08-05T10:28:29.691Z,53.41
2022-08-05T10:32:50.500Z,53.40
2022-08-05T10:33:45.354Z,53.10
2022-08-05T10:36:23.481Z,53.08
2022-08-05T10:39:00.559Z,52.92
2022-08-05T10:41:45.235Z,53.14
2022-08-05T10:44:18.268Z,53.04
2022-08-05T10:46:54.068Z,53.42
2022-08-05T10:49:27.473Z,53.00
2022-08-05T10:52:05.067Z,53.30
2022-08-05T10:55:03.991Z,53.47
2022-08-05T10:57:33.693Z,53.37
2022-08-05T11:00:23.194Z,53.36
2022-08-05T11:02:59.188Z,53.07
2022-08-05T11:06:04.271Z,53.38
2022-08-05T11:08:37.285Z,53.21
2022-08-05T11:11:44.349Z,53.37
2022-08-05T11:18:09.477Z,53.39
2022-08-05T11:20:43.682Z,52.97
2022-08-05T11:24:02.312Z,53.41
2022-08-05T11:26:16.448Z,53.13
2022-08-05T11:28:58.681Z,53.43
2022-08-05T11:31:54.399Z,53.28
2022-08-05T11:34:36.638Z,53.39
2022-08-05T11:37:06.309Z,53.20
2022-08-05T11:39:55.596Z,53.16
2022-08-05T11:42:29.608Z,52.85
2022-08-05T11:45:03.541Z,53.15
2022-08-05T11:47:49.396Z,53.20
2022-08-05T11:50:17.883Z,53.20
2022-08-05T11:52:46.053Z,52.62
2022-08-05T11:55:15.680Z,52.76
2022-08-05T11:58:09.586Z,52.83
2022-08-05T12:00:38.106Z,53.02
2022-08-05T12:03:28.479Z,52.79
2022-08-05T12:06:06.437Z,52.62
2022-08-05T12:08:52.827Z,52.96
2022-08-05T12:11:21.533Z,52.62
2022-08-05T12:14:04.243Z,52.91
2022-08-05T12:16:38.491Z,52.98
2022-08-05T12:19:08.222Z,52.83
2022-08-05T12:21:41.895Z,52.70
2022-08-05T12:24:11.458Z,53.05
2022-08-05T12:26:39.808Z,52.60
2022-08-05T12:29:22.479Z,52.69
2022-08-05T12:31:55.464Z,52.86
2022-08-05T12:34:28.954Z,52.56
2022-08-05T12:37:06.493Z,52.87
2022-08-05T12:39:37.424Z,52.76
2022-08-05T12:42:16.600Z,53.03
2022-08-05T12:44:44.939Z,52.80
2022-08-05T12:47:13.776Z,53.14
2022-08-05T12:50:02.262Z,53.02
2022-08-05T12:52:38.931Z,53.08
2022-08-05T12:55:25.130Z,53.13
2022-08-05T12:58:39.120Z,52.92
2022-08-05T13:02:01.665Z,53.27
2022-08-05T13:03:32.059Z,52.87
2022-08-05T13:05:59.788Z,52.91
2022-08-05T13:08:30.379Z,53.03
2022-08-05T13:11:02.246Z,53.22
2022-08-05T13:14:04.875Z,53.35
2022-08-05T13:16:17.442Z,53.47
2022-08-05T13:18:57.986Z,53.24
2022-08-05T13:21:27.976Z,53.06
2022-08-05T13:24:05.556Z,53.36
2022-08-05T13:26:33.969Z,52.98
2022-08-05T13:29:00.786Z,52.84
2022-08-05T13:31:34.033Z,52.84
2022-08-05T13:34:22.288Z,53.14
2022-08-05T13:36:53.291Z,52.76
2022-08-05T13:40:13.176Z,53.15
2022-08-05T13:42:07.660Z,52.71
2022-08-05T13:44:45.652Z,52.95
2022-08-05T13:47:34.687Z,52.98
2022-08-05T13:50:08.138Z,52.63
2022-08-05T13:52:37.996Z,52.55
2022-08-05T13:55:09.749Z,52.79
2022-08-05T13:57:50.886Z,52.57
2022-08-05T14:00:27.358Z,52.45
2022-08-05T14:02:57.102Z,52.78
2022-08-05T14:05:29.278Z,52.31
2022-08-05T14:08:20.164Z,51.98
2022-08-05T14:10:49.050Z,52.13
2022-08-05T14:13:16.243Z,52.14
2022-08-05T14:16:05.641Z,51.65
2022-08-05T14:18:29.597Z,51.68
2022-08-05T14:20:56.175Z,51.73
2022-08-05T14:23:25.560Z,51.91
2022-08-05T14:25:58.128Z,51.47
2022-08-05T14:28:28.152Z,51.37
2022-08-05T14:30:55.782Z,51.33
2022-08-05T14:33:24.007Z,51.27
2022-08-05T14:35:52.075Z,51.08
2022-08-05T14:38:27.641Z,51.17
2022-08-05T14:41:00.961Z,50.81
2022-08-05T14:43:59.654Z,50.73
2022-08-05T14:46:14.557Z,50.97
2022-08-05T14:48:41.462Z,50.99
2022-08-05T14:51:09.399Z,50.81
2022-08-05T14:53:44.587Z,50.73
2022-08-05T14:56:12.032Z,50.48
2022-08-05T14:58:47.890Z,50.98
2022-08-05T15:01:47.287Z,50.51
2022-08-05T15:04:11.473Z,50.51
2022-08-05T15:06:39.091Z,50.71
2022-08-05T15:09:07.770Z,50.42
2022-08-05T15:11:52.043Z,50.74
2022-08-05T15:14:34.907Z,50.62
2022-08-05T15:17:41.782Z,50.55
2022-08-05T15:19:55.043Z,50.25
2022-08-05T15:22:21.968Z,50.52
2022-08-05T15:24:54.314Z,50.49
2022-08-05T15:27:20.996Z,50.45
2022-08-05T15:29:47.555Z,50.23
2022-08-05T15:32:16.420Z,50.03
2022-08-05T15:34:43.634Z,50.38
2022-08-05T15:37:15.647Z,50.04
2022-08-05T15:41:03.338Z,49.71
2022-08-05T15:42:56.902Z,49.91
2022-08-05T15:45:18.675Z,49.63
2022-08-05T15:47:49.724Z,49.81
2022-08-05T15:50:21.342Z,49.85
2022-08-05T15:52:54.967Z,49.71
2022-08-05T15:55:24.725Z,49.55
2022-08-05T15:58:09.729Z,49.50
2022-08-05T16:01:03.571Z,49.69
2022-08-05T16:03:30.415Z,49.59
2022-08-05T16:05:59.576Z,49.59
2022-08-05T16:08:30.751Z,49.48
2022-08-05T16:10:58.705Z,49.12
2022-08-05T16:13:34.061Z,49.08
2022-08-05T16:16:02.144Z,49.15
2022-08-05T16:18:33.071Z,49.02
2022-08-05T16:21:04.563Z,49.17
2022-08-05T16:23:53.324Z,49.22
2022-08-05T16:26:20.090Z,49.00
2022-08-05T16:28:53.742Z,48.99
2022-08-05T16:31:21.531Z,49.06
2022-08-05T16:33:48.577Z,49.09
2022-08-05T16:36:15.203Z,49.04
2022-08-05T16:38:54.667Z,49.15
2022-08-05T16:42:13.972Z,49.31
2022-08-05T16:44:11.975Z,49.04
2022-08-05T16:46:41.122Z,49.38
2022-08-05T16:49:09.961Z,48.96
2022-08-05T16:51:42.691Z,49.15
2022-08-05T16:54:24.915Z,49.07
2022-08-05T16:56:55.461Z,49.13
2022-08-05T16:59:22.884Z,48.69
2022-08-05T17:01:53.650Z,48.90
2022-08-05T17:04:23.778Z,48.62
2022-08-05T17:06:54.266Z,48.74
2022-08-05T17:09:21.705Z,48.66
2022-08-05T17:11:54.646Z,48.47
2022-08-05T17:14:36.633Z,48.73
2022-08-05T17:17:14.229Z,48.50
2022-08-05T17:19:43.820Z,48.72
2022-08-05T17:22:24.469Z,48.46
2022-08-05T17:24:57.640Z,48.68
2022-08-05T17:27:33.679Z,48.38
2022-08-05T17:30:02.472Z,48.29
2022-08-05T17:32:29.711Z,48.35
2022-08-05T17:34:58.219Z,48.32
2022-08-05T17:37:41.895Z,48.39
2022-08-05T17:40:17.501Z,48.56
2022-08-05T17:42:50.655Z,48.56
2022-08-05T17:45:22.602Z,48.35
2022-08-05T17:47:54.390Z,48.19
2022-08-05T17:50:30.381Z,48.58
2022-08-05T17:53:02.462Z,48.45
2022-08-05T17:55:38.350Z,48.35
2022-08-05T17:58:14.381Z,48.40
2022-08-05T18:00:47.178Z,48.44
2022-08-05T18:03:39.344Z,48.47
2022-08-05T18:06:10.840Z,48.61
2022-08-05T18:08:40.545Z,48.67
2022-08-05T18:11:11.457Z,48.53
2022-08-05T18:13:51.736Z,48.35
2022-08-05T18:16:20.562Z,48.38
2022-08-05T18:18:48.595Z,48.50
2022-08-05T18:21:20.037Z,48.47
2022-08-05T18:23:48.185Z,48.42
2022-08-05T18:26:14.787Z,48.41
2022-08-05T18:28:46.329Z,48.58
2022-08-05T18:31:13.735Z,48.33
2022-08-05T18:33:47.127Z,48.50
2022-08-05T18:36:15.449Z,48.47
2022-08-05T18:38:43.034Z,48.23
2022-08-05T18:41:55.476Z,48.50
2022-08-05T18:43:56.722Z,48.38
2022-08-05T18:46:32.437Z,48.40
2022-08-05T18:49:20.482Z,48.58
2022-08-05T18:52:08.437Z,48.60
2022-08-05T18:54:35.482Z,48.42
2022-08-05T18:57:02.696Z,48.34
2022-08-05T18:59:42.907Z,48.64
2022-08-05T19:02:27.079Z,48.24
2022-08-05T19:05:02.914Z,48.73
2022-08-05T19:07:46.196Z,48.70
2022-08-05T19:10:14.475Z,48.66
2022-08-05T19:12:41.393Z,48.58
2022-08-05T19:15:25.142Z,48.48
2022-08-05T19:18:09.277Z,48.41
2022-08-05T19:20:41.776Z,48.45
2022-08-05T19:24:04.208Z,48.37
2022-08-05T19:26:01.606Z,48.55
2022-08-05T19:28:28.877Z,48.44
2022-08-05T19:30:55.944Z,48.65
2022-08-05T19:33:34.094Z,48.52
2022-08-05T19:36:02.752Z,48.65
2022-08-05T19:38:32.745Z,48.58
2022-08-05T19:40:59.347Z,48.44
2022-08-05T19:44:06.823Z,48.47
2022-08-05T19:46:16.781Z,48.51
2022-08-05T19:48:56.569Z,48.45
2022-08-05T19:52:04.982Z,48.49
2022-08-05T19:54:27.181Z,48.50
2022-08-05T19:56:58.621Z,48.61
2022-08-05T20:00:00.784Z,48.61
2022-08-05T20:02:13.049Z,48.53
2022-08-05T20:04:43.262Z,48.57
2022-08-05T20:07:13.872Z,48.53
2022-08-05T20:09:54.697Z,48.53
2022-08-05T20:12:24.545Z,48.53
2022-08-05T20:14:52.882Z,48.50
2022-08-05T20:17:23.637Z,48.54
2022-08-05T20:19:56.552Z,48.63
2022-08-05T20:22:24.213Z,48.73
2022-08-05T20:24:53.851Z,48.61
2022-08-05T20:27:26.861Z,48.69
2022-08-05T20:29:57.921Z,48.47
2022-08-05T20:32:26.291Z,48.73
2022-08-05T20:34:53.208Z,48.56
2022-08-05T20:38:04.796Z,48.71
2022-08-05T20:40:08.679Z,48.51
2022-08-05T20:42:35.533Z,48.49
2022-08-05T20:45:03.037Z,48.77
2022-08-05T20:47:32.034Z,48.61
2022-08-05T20:50:01.979Z,48.67
2022-08-05T20:52:29.271Z,48.89
2022-08-05T20:55:15.820Z,48.74
2022-08-05T20:57:44.667Z,48.68
2022-08-05T21:00:41.502Z,48.58
2022-08-05T21:03:07.146Z,48.70
2022-08-05T21:05:47.806Z,48.72
2022-08-05T21:08:21.291Z,48.99
2022-08-05T21:10:55.008Z,48.78
2022-08-05T21:13:37.882Z,48.84
2022-08-05T21:16:12.477Z,48.67
2022-08-05T21:18:39.201Z,48.90
2022-08-05T21:21:11.820Z,48.86
2022-08-05T21:23:38.986Z,48.93
2022-08-05T21:26:12.204Z,48.65
2022-08-05T21:28:40.986Z,49.00
2022-08-05T21:31:14.799Z,49.05
2022-08-05T21:33:43.376Z,48.76
2022-08-05T21:36:14.207Z,48.75
2022-08-05T21:38:54.767Z,48.87
2022-08-05T21:41:21.556Z,49.19
2022-08-05T21:44:01.609Z,49.00
2022-08-05T21:46:29.111Z,49.02
2022-08-05T21:48:56.560Z,48.94
2022-08-05T21:52:16.118Z,49.01
2022-08-05T21:54:10.001Z,49.22
2022-08-05T21:56:36.692Z,49.25
2022-08-05T21:59:24.341Z,49.07
2022-08-05T22:02:21.573Z,49.11
2022-08-05T22:04:53.277Z,49.14
2022-08-05T22:08:22.230Z,49.18
2022-08-05T22:10:54.476Z,49.26
2022-08-05T22:14:06.392Z,49.14
2022-08-05T22:16:40.512Z,49.17
2022-08-05T22:20:03.098Z,49.15
2022-08-05T22:24:03.330Z,49.24
2022-08-05T22:27:17.807Z,49.38
2022-08-05T22:30:55.931Z,49.25
2022-08-05T22:34:28.780Z,49.40
2022-08-05T22:37:58.573Z,49.62
2022-08-05T22:40:37.330Z,49.61
2022-08-05T22:43:47.825Z,49.94
2022-08-05T22:47:29.667Z,49.77
2022-08-05T22:50:23.460Z,49.77
2022-08-05T22:52:55.252Z,49.92
2022-08-05T22:58:57.225Z,50.01
2022-08-05T23:02:29.807Z,50.17
2022-08-05T23:06:11.883Z,50.29
2022-08-05T23:12:09.290Z,50.33
2022-08-05T23:15:26.852Z,50.42
2022-08-05T23:19:01.203Z,50.24
2022-08-05T23:25:52.395Z,50.37
2022-08-05T23:28:30.782Z,50.40
2022-08-05T23:31:16.603Z,50.49
2022-08-05T23:34:04.335Z,50.29
2022-08-05T23:37:34.168Z,50.57
2022-08-05T23:40:15.307Z,50.52
2022-08-05T23:42:47.344Z,50.34
2022-08-05T23:45:16.670Z,50.66
2022-08-05T23:47:48.299Z,50.53
2022-08-05T23:50:29.572Z,50.69
2022-08-05T23:53:04.245Z,50.46
2022-08-05T23:55:50.626Z,50.50
2022-08-05T23:58:31.946Z,50.62
